Terminal Aerodrome Forecast
Issued by NWS Cleveland, OH

Home | Current Version | Previous Version | Graphics & Text | Print | Product List | Glossary Off
Versions: 1 2 3 4 5 6 7 8 9 10 11 12 13 14 15 16 17 18 19 20 21 22 23

000
FTUS41 KCLE 271200 AAA
TAFTOL
TAF AMD
KTOL 271243Z 2713/2812 35010KT P6SM -SN OVC025
     FM272000 34010G20KT P6SM VCSH BKN035
      TEMPO 2722/2802 -SN OVC030
     FM280300 36007KT P6SM BKN050=

USA.gov is the U.S. government's official web portal to all federal, state and local government web resources and services.